Edisongracht — PDUJ — position and weather

sailwx.info

Track history (hours):
 
Tides and Currents Weather Stations Pressure Air Temp Water Temp Dewpoint Dewpoint Depression Visibility Wind Speed Wind Dir Waves Ship Positions

Edisongracht

Last reported at 2017-Nov-20 00:29 UTC. Time now 2017-Nov-20 02:19 UTC.
Position N 38°29' W 008°56'.

Length 136 m; beam 19 m; draft 9 m.

Type: Cargo ship. MMSI: 244262000.

Date/timePositionNaut miles runAvg speedWind from/ knotsBaromVisibWave heightAir tempDewpointWater temp
2017-Nov-20 00:29N 38°29' W 008°56'0 0.0
2017-Nov-19 23:58N 38°29' W 008°56'0 0.0
2017-Nov-19 23:29N 38°29' W 008°56'0 0.0
2017-Nov-19 22:59N 38°29' W 008°56'0 0.0
2017-Nov-19 22:29N 38°29' W 008°56'0 0.0
2017-Nov-19 21:59N 38°29' W 008°56'0 0.0
2017-Nov-19 21:29N 38°29' W 008°56'0 0.0
2017-Nov-19 20:59N 38°29' W 008°56'0 0.0
2017-Nov-19 20:29N 38°29' W 008°56'0 0.0
2017-Nov-19 19:58N 38°29' W 008°56'0 0.0
2017-Nov-19 19:28N 38°29' W 008°56'0 0.0
2017-Nov-19 18:55N 38°29' W 008°56'0 0.0
2017-Nov-19 18:28N 38°29' W 008°56'0 0.0
2017-Nov-19 17:58N 38°29' W 008°56'0 0.0
2017-Nov-19 17:29N 38°29' W 008°56'0 0.0
2017-Nov-19 16:56N 38°29' W 008°56'0 0.0
2017-Nov-19 16:26N 38°29' W 008°56'0 0.0
2017-Nov-19 15:59N 38°29' W 008°56'0 0.0
2017-Nov-19 15:25N 38°29' W 008°56'0 0.4
2017-Nov-19 15:00N 38°29' W 008°56'4 8.8
2017-Nov-19 14:31N 38°26' W 008°59'3 5.4
2017-Nov-19 14:00N 38°23' W 009°00'4 7.7
2017-Nov-19 13:30N 38°20' W 009°02'0 0.6
2017-Nov-19 13:00N 38°20' W 009°02'0 0.6
2017-Nov-19 12:30N 38°21' W 009°02'0 0.6
2017-Nov-19 12:00N 38°21' W 009°02'0 0.7
2017-Nov-19 11:30N 38°21' W 009°02'0 0.6
2017-Nov-19 11:00N 38°21' W 009°02'0 0.6
2017-Nov-19 10:30N 38°22' W 009°02'0 0.7
2017-Nov-19 10:00N 38°22' W 009°01'0 0.7
2017-Nov-19 09:31N 38°22' W 009°01'3 6.2
2017-Nov-19 09:01N 38°20' W 009°03'5 9.9
2017-Nov-19 08:31N 38°15' W 009°06'5 9.4
2017-Nov-19 08:00N 38°11' W 009°08'4 8.7
2017-Nov-19 07:31N 38°07' W 009°10'5 9.3
2017-Nov-19 07:01N 38°03' W 009°13'510.3
2017-Nov-19 06:31N 37°58' W 009°16'510.5
2017-Nov-19 06:01N 37°54' W 009°19'611.3
2017-Nov-19 05:31N 37°49' W 009°23'611.3
2017-Nov-19 05:01N 37°43' W 009°25'611.4
2017-Nov-19 04:30N 37°38' W 009°29'511.4
2017-Nov-19 04:01N 37°33' W 009°32'611.2
2017-Nov-19 03:31N 37°28' W 009°35'611.4
2017-Nov-19 03:01N 37°23' W 009°38'611.4
2017-Nov-19 02:31N 37°18' W 009°41'611.6
2017-Nov-19 02:00N 37°13' W 009°44'611.2
2017-Nov-19 01:31N 37°08' W 009°47'1711.4
2017-Nov-19 00:03N 36°52' W 009°56'111.4
2017-Nov-19 00:00N 36°52' W 009°56'2311.4
2017-Nov-18 21:58N 36°31' W 010°09'511.3
2017-Nov-18 21:30N 36°27' W 010°12'611.2
2017-Nov-18 21:00N 36°22' W 010°15'46011.8
2017-Nov-17 05:56N 29°27' W 014°13'714.0
2017-Nov-17 05:26N 29°21' W 014°16'1713.8
2017-Nov-17 04:12N 29°05' W 014°25'3413.8
2017-Nov-17 01:43N 28°35' W 014°41'513.7
2017-Nov-17 01:23N 28°30' W 014°44'513.7
2017-Nov-17 00:59N 28°26' W 014°46'714.0
2017-Nov-17 00:31N 28°20' W 014°49'713.9
2017-Nov-17 00:00N 28°13' W 014°52'611.8
2017-Nov-16 23:30N 28°09' W 014°58'713.8
2017-Nov-16 23:00N 28°09' W 015°05'714.1
2017-Nov-16 22:30N 28°08' W 015°13'714.1
2017-Nov-16 22:00N 28°07' W 015°21'4 6.6
2017-Nov-16 21:28N 28°09' W 015°25'0 0.2
2017-Nov-16 20:58N 28°09' W 015°25'0 0.0
2017-Nov-16 20:28N 28°09' W 015°25'0 0.0
2017-Nov-16 19:58N 28°09' W 015°25'0 0.0
2017-Nov-16 19:28N 28°09' W 015°25'0 0.0
2017-Nov-16 18:49N 28°09' W 015°25'0 0.0
2017-Nov-16 18:19N 28°09' W 015°25'0 0.0
2017-Nov-16 17:49N 28°09' W 015°25'0 0.0
2017-Nov-16 17:19N 28°09' W 015°25'0 0.0
2017-Nov-16 16:52N 28°09' W 015°25'0 0.0
2017-Nov-16 16:22N 28°09' W 015°25'0 0.0
2017-Nov-16 15:52N 28°09' W 015°25'0 0.0
2017-Nov-16 15:22N 28°09' W 015°25'0 0.0
2017-Nov-16 14:55N 28°09' W 015°25'0 0.0
2017-Nov-16 14:22N 28°09' W 015°25'0 0.0
2017-Nov-16 13:55N 28°09' W 015°25'0 0.0
2017-Nov-16 13:25N 28°09' W 015°25'0 0.0
2017-Nov-16 12:55N 28°09' W 015°25'0 0.0
2017-Nov-16 12:25N 28°09' W 015°25'0 0.0
2017-Nov-16 11:55N 28°09' W 015°25'0 0.0
2017-Nov-16 11:28N 28°09' W 015°25'0 0.0
2017-Nov-16 10:58N 28°09' W 015°25'0 0.0
2017-Nov-16 10:25N 28°09' W 015°25'0 0.0
2017-Nov-16 09:58N 28°09' W 015°25'0 0.0
2017-Nov-16 09:28N 28°09' W 015°25'0 0.0
2017-Nov-16 08:58N 28°09' W 015°25'0 0.0
2017-Nov-16 08:28N 28°09' W 015°25'0 0.0
2017-Nov-16 07:58N 28°09' W 015°25'0 0.0
2017-Nov-16 07:28N 28°09' W 015°25'0 0.0
2017-Nov-16 06:58N 28°09' W 015°25'0 0.0
2017-Nov-16 06:28N 28°09' W 015°25'0 0.0
2017-Nov-16 05:58N 28°09' W 015°25'0 0.0
2017-Nov-16 05:28N 28°09' W 015°25'0 0.0
2017-Nov-16 04:58N 28°09' W 015°25'0 0.0
2017-Nov-16 04:28N 28°09' W 015°25'0 0.0
2017-Nov-16 03:49N 28°09' W 015°25'0 0.0
2017-Nov-16 03:22N 28°09' W 015°25'0 0.0
2017-Nov-16 02:52N 28°09' W 015°25'0 0.0
2017-Nov-16 02:22N 28°09' W 015°25'0 0.0
2017-Nov-16 01:52N 28°09' W 015°25'0 0.0
2017-Nov-16 01:22N 28°09' W 015°25'0 0.0
2017-Nov-16 00:52N 28°09' W 015°25'0 0.0
2017-Nov-16 00:22N 28°09' W 015°25'0 0.0
2017-Nov-15 23:52N 28°09' W 015°25'0 0.0
2017-Nov-15 23:22N 28°09' W 015°25'0 0.0
2017-Nov-15 22:55N 28°09' W 015°25'0 0.0
2017-Nov-15 22:25N 28°09' W 015°25'0 0.0
2017-Nov-15 21:55N 28°09' W 015°25'0 0.0
2017-Nov-15 21:25N 28°09' W 015°25'0 0.0
2017-Nov-15 20:55N 28°09' W 015°25'0 0.0
2017-Nov-15 20:28N 28°09' W 015°25'0 0.0
2017-Nov-15 19:58N 28°09' W 015°25'0 0.0
2017-Nov-15 19:28N 28°09' W 015°25'0 0.0
2017-Nov-15 18:58N 28°09' W 015°25'0 0.0
2017-Nov-15 18:28N 28°09' W 015°25'0 0.0
2017-Nov-15 17:55N 28°09' W 015°25'0 0.0
2017-Nov-15 17:28N 28°09' W 015°25'0 0.0
2017-Nov-15 16:58N 28°09' W 015°25'0 0.0
2017-Nov-15 16:28N 28°09' W 015°25'0 0.0
2017-Nov-15 15:58N 28°09' W 015°25'0 0.0
2017-Nov-15 15:28N 28°09' W 015°25'0 0.0
2017-Nov-15 14:58N 28°09' W 015°25'0 0.0
2017-Nov-15 14:28N 28°09' W 015°25'0 0.0
2017-Nov-15 13:58N 28°09' W 015°25'0 0.0
2017-Nov-15 13:28N 28°09' W 015°25'0 0.0
2017-Nov-15 12:49N 28°09' W 015°25'0 0.0
2017-Nov-15 12:19N 28°09' W 015°25'0 0.0
2017-Nov-15 11:49N 28°09' W 015°25'0 0.0
2017-Nov-15 11:22N 28°09' W 015°25'0 0.0
2017-Nov-15 10:52N 28°09' W 015°25'0 0.0
2017-Nov-15 10:22N 28°09' W 015°25'0 0.0
2017-Nov-15 09:52N 28°09' W 015°25'0 0.0
2017-Nov-15 09:07N 28°09' W 015°25'0 0.0
2017-Nov-15 08:55N 28°09' W 015°25'0 0.0
2017-Nov-15 08:22N 28°09' W 015°25'0 0.0
2017-Nov-15 07:55N 28°09' W 015°25'0 0.0
2017-Nov-15 07:30N 28°09' W 015°25'1 1.2
2017-Nov-15 07:00N 28°08' W 015°25'2 4.5
2017-Nov-15 06:30N 28°07' W 015°23'1 2.0
2017-Nov-15 06:01N 28°06' W 015°22'3 6.2
2017-Nov-15 05:30N 28°07' W 015°19'611.1
2017-Nov-15 05:00N 28°08' W 015°12'611.2
2017-Nov-15 04:31N 28°09' W 015°06'611.6
2017-Nov-15 04:00N 28°11' W 015°00'611.2
2017-Nov-15 03:30N 28°16' W 014°57'611.4
2017-Nov-15 03:00N 28°22' W 014°55'611.3
2017-Nov-15 02:30N 28°27' W 014°53'611.3
2017-Nov-15 02:00N 28°32' W 014°51'611.4
2017-Nov-15 01:31N 28°38' W 014°49'  
2017-Nov-12 20:47N 35°57' W 005°35'412.7
2017-Nov-12 20:28N 35°58' W 005°30'611.6
2017-Nov-12 20:00N 35°60' W 005°24'510.5
2017-Nov-12 19:31N 36°01' W 005°17'21612.0
2017-Nov-12 01:35N 37°13' W 001°04'112.8
2017-Nov-12 01:29N 37°14' W 001°03'712.6
2017-Nov-12 00:58N 37°18' W 000°56'612.9
2017-Nov-12 00:30N 37°22' W 000°51'612.9
2017-Nov-12 00:00N 37°26' W 000°45'813.1
2017-Nov-11 23:26N 37°31' W 000°38'612.8
2017-Nov-11 23:00N 37°35' W 000°33'612.9
2017-Nov-11 22:30N 37°40' W 000°28'  
Track history (hours):
 
Tides and Currents Weather Stations Pressure Air Temp Water Temp Dewpoint Dewpoint Depression Visibility Wind Speed Wind Dir Waves Ship Positions

Edisongracht

Last reported at 2017-Nov-20 00:29 UTC. Time now 2017-Nov-20 02:19 UTC.
Position N 38°29' W 008°56'.

Length 136 m; beam 19 m; draft 9 m.

Type: Cargo ship. MMSI: 244262000.

Date/timePositionNaut miles runAvg speedWind from/ knotsBaromVisibWave heightAir tempDewpointWater temp
2017-Nov-20 00:29N 38°29' W 008°56'0 0.0
2017-Nov-19 23:58N 38°29' W 008°56'0 0.0
2017-Nov-19 23:29N 38°29' W 008°56'0 0.0
2017-Nov-19 22:59N 38°29' W 008°56'0 0.0
2017-Nov-19 22:29N 38°29' W 008°56'0 0.0
2017-Nov-19 21:59N 38°29' W 008°56'0 0.0
2017-Nov-19 21:29N 38°29' W 008°56'0 0.0
2017-Nov-19 20:59N 38°29' W 008°56'0 0.0
2017-Nov-19 20:29N 38°29' W 008°56'0 0.0
2017-Nov-19 19:58N 38°29' W 008°56'0 0.0
2017-Nov-19 19:28N 38°29' W 008°56'0 0.0
2017-Nov-19 18:55N 38°29' W 008°56'0 0.0
2017-Nov-19 18:28N 38°29' W 008°56'0 0.0
2017-Nov-19 17:58N 38°29' W 008°56'0 0.0
2017-Nov-19 17:29N 38°29' W 008°56'0 0.0
2017-Nov-19 16:56N 38°29' W 008°56'0 0.0
2017-Nov-19 16:26N 38°29' W 008°56'0 0.0
2017-Nov-19 15:59N 38°29' W 008°56'0 0.0
2017-Nov-19 15:25N 38°29' W 008°56'0 0.4
2017-Nov-19 15:00N 38°29' W 008°56'4 8.8
2017-Nov-19 14:31N 38°26' W 008°59'3 5.4
2017-Nov-19 14:00N 38°23' W 009°00'4 7.7
2017-Nov-19 13:30N 38°20' W 009°02'0 0.6
2017-Nov-19 13:00N 38°20' W 009°02'0 0.6
2017-Nov-19 12:30N 38°21' W 009°02'0 0.6
2017-Nov-19 12:00N 38°21' W 009°02'0 0.7
2017-Nov-19 11:30N 38°21' W 009°02'0 0.6
2017-Nov-19 11:00N 38°21' W 009°02'0 0.6
2017-Nov-19 10:30N 38°22' W 009°02'0 0.7
2017-Nov-19 10:00N 38°22' W 009°01'0 0.7
2017-Nov-19 09:31N 38°22' W 009°01'3 6.2
2017-Nov-19 09:01N 38°20' W 009°03'5 9.9
2017-Nov-19 08:31N 38°15' W 009°06'5 9.4
2017-Nov-19 08:00N 38°11' W 009°08'4 8.7
2017-Nov-19 07:31N 38°07' W 009°10'5 9.3
2017-Nov-19 07:01N 38°03' W 009°13'510.3
2017-Nov-19 06:31N 37°58' W 009°16'510.5
2017-Nov-19 06:01N 37°54' W 009°19'611.3
2017-Nov-19 05:31N 37°49' W 009°23'611.3
2017-Nov-19 05:01N 37°43' W 009°25'611.4
2017-Nov-19 04:30N 37°38' W 009°29'511.4
2017-Nov-19 04:01N 37°33' W 009°32'611.2
2017-Nov-19 03:31N 37°28' W 009°35'611.4
2017-Nov-19 03:01N 37°23' W 009°38'611.4
2017-Nov-19 02:31N 37°18' W 009°41'611.6
2017-Nov-19 02:00N 37°13' W 009°44'611.2
2017-Nov-19 01:31N 37°08' W 009°47'1711.4
2017-Nov-19 00:03N 36°52' W 009°56'111.4
2017-Nov-19 00:00N 36°52' W 009°56'2311.4
2017-Nov-18 21:58N 36°31' W 010°09'511.3
2017-Nov-18 21:30N 36°27' W 010°12'611.2
2017-Nov-18 21:00N 36°22' W 010°15'46011.8
2017-Nov-17 05:56N 29°27' W 014°13'714.0
2017-Nov-17 05:26N 29°21' W 014°16'1713.8
2017-Nov-17 04:12N 29°05' W 014°25'3413.8
2017-Nov-17 01:43N 28°35' W 014°41'513.7
2017-Nov-17 01:23N 28°30' W 014°44'513.7
2017-Nov-17 00:59N 28°26' W 014°46'714.0
2017-Nov-17 00:31N 28°20' W 014°49'713.9
2017-Nov-17 00:00N 28°13' W 014°52'611.8
2017-Nov-16 23:30N 28°09' W 014°58'713.8
2017-Nov-16 23:00N 28°09' W 015°05'714.1
2017-Nov-16 22:30N 28°08' W 015°13'714.1
2017-Nov-16 22:00N 28°07' W 015°21'4 6.6
2017-Nov-16 21:28N 28°09' W 015°25'0 0.2
2017-Nov-16 20:58N 28°09' W 015°25'0 0.0
2017-Nov-16 20:28N 28°09' W 015°25'0 0.0
2017-Nov-16 19:58N 28°09' W 015°25'0 0.0
2017-Nov-16 19:28N 28°09' W 015°25'0 0.0
2017-Nov-16 18:49N 28°09' W 015°25'0 0.0
2017-Nov-16 18:19N 28°09' W 015°25'0 0.0
2017-Nov-16 17:49N 28°09' W 015°25'0 0.0
2017-Nov-16 17:19N 28°09' W 015°25'0 0.0
2017-Nov-16 16:52N 28°09' W 015°25'0 0.0
2017-Nov-16 16:22N 28°09' W 015°25'0 0.0
2017-Nov-16 15:52N 28°09' W 015°25'0 0.0
2017-Nov-16 15:22N 28°09' W 015°25'0 0.0
2017-Nov-16 14:55N 28°09' W 015°25'0 0.0
2017-Nov-16 14:22N 28°09' W 015°25'0 0.0
2017-Nov-16 13:55N 28°09' W 015°25'0 0.0
2017-Nov-16 13:25N 28°09' W 015°25'0 0.0
2017-Nov-16 12:55N 28°09' W 015°25'0 0.0
2017-Nov-16 12:25N 28°09' W 015°25'0 0.0
2017-Nov-16 11:55N 28°09' W 015°25'0 0.0
2017-Nov-16 11:28N 28°09' W 015°25'0 0.0
2017-Nov-16 10:58N 28°09' W 015°25'0 0.0
2017-Nov-16 10:25N 28°09' W 015°25'0 0.0
2017-Nov-16 09:58N 28°09' W 015°25'0 0.0
2017-Nov-16 09:28N 28°09' W 015°25'0 0.0
2017-Nov-16 08:58N 28°09' W 015°25'0 0.0
2017-Nov-16 08:28N 28°09' W 015°25'0 0.0
2017-Nov-16 07:58N 28°09' W 015°25'0 0.0
2017-Nov-16 07:28N 28°09' W 015°25'0 0.0
2017-Nov-16 06:58N 28°09' W 015°25'0 0.0
2017-Nov-16 06:28N 28°09' W 015°25'0 0.0
2017-Nov-16 05:58N 28°09' W 015°25'0 0.0
2017-Nov-16 05:28N 28°09' W 015°25'0 0.0
2017-Nov-16 04:58N 28°09' W 015°25'0 0.0
2017-Nov-16 04:28N 28°09' W 015°25'0 0.0
2017-Nov-16 03:49N 28°09' W 015°25'0 0.0
2017-Nov-16 03:22N 28°09' W 015°25'0 0.0
2017-Nov-16 02:52N 28°09' W 015°25'0 0.0
2017-Nov-16 02:22N 28°09' W 015°25'0 0.0
2017-Nov-16 01:52N 28°09' W 015°25'0 0.0
2017-Nov-16 01:22N 28°09' W 015°25'0 0.0
2017-Nov-16 00:52N 28°09' W 015°25'0 0.0
2017-Nov-16 00:22N 28°09' W 015°25'0 0.0
2017-Nov-15 23:52N 28°09' W 015°25'0 0.0
2017-Nov-15 23:22N 28°09' W 015°25'0 0.0
2017-Nov-15 22:55N 28°09' W 015°25'0 0.0
2017-Nov-15 22:25N 28°09' W 015°25'0 0.0
2017-Nov-15 21:55N 28°09' W 015°25'0 0.0
2017-Nov-15 21:25N 28°09' W 015°25'0 0.0
2017-Nov-15 20:55N 28°09' W 015°25'0 0.0
2017-Nov-15 20:28N 28°09' W 015°25'0 0.0
2017-Nov-15 19:58N 28°09' W 015°25'0 0.0
2017-Nov-15 19:28N 28°09' W 015°25'0 0.0
2017-Nov-15 18:58N 28°09' W 015°25'0 0.0
2017-Nov-15 18:28N 28°09' W 015°25'0 0.0
2017-Nov-15 17:55N 28°09' W 015°25'0 0.0
2017-Nov-15 17:28N 28°09' W 015°25'0 0.0
2017-Nov-15 16:58N 28°09' W 015°25'0 0.0
2017-Nov-15 16:28N 28°09' W 015°25'0 0.0
2017-Nov-15 15:58N 28°09' W 015°25'0 0.0
2017-Nov-15 15:28N 28°09' W 015°25'0 0.0
2017-Nov-15 14:58N 28°09' W 015°25'0 0.0
2017-Nov-15 14:28N 28°09' W 015°25'0 0.0
2017-Nov-15 13:58N 28°09' W 015°25'0 0.0
2017-Nov-15 13:28N 28°09' W 015°25'0 0.0
2017-Nov-15 12:49N 28°09' W 015°25'0 0.0
2017-Nov-15 12:19N 28°09' W 015°25'0 0.0
2017-Nov-15 11:49N 28°09' W 015°25'0 0.0
2017-Nov-15 11:22N 28°09' W 015°25'0 0.0
2017-Nov-15 10:52N 28°09' W 015°25'0 0.0
2017-Nov-15 10:22N 28°09' W 015°25'0 0.0
2017-Nov-15 09:52N 28°09' W 015°25'0 0.0
2017-Nov-15 09:07N 28°09' W 015°25'0 0.0
2017-Nov-15 08:55N 28°09' W 015°25'0 0.0
2017-Nov-15 08:22N 28°09' W 015°25'0 0.0
2017-Nov-15 07:55N 28°09' W 015°25'0 0.0
2017-Nov-15 07:30N 28°09' W 015°25'1 1.2
2017-Nov-15 07:00N 28°08' W 015°25'2 4.5
2017-Nov-15 06:30N 28°07' W 015°23'1 2.0
2017-Nov-15 06:01N 28°06' W 015°22'3 6.2
2017-Nov-15 05:30N 28°07' W 015°19'611.1
2017-Nov-15 05:00N 28°08' W 015°12'611.2
2017-Nov-15 04:31N 28°09' W 015°06'611.6
2017-Nov-15 04:00N 28°11' W 015°00'611.2
2017-Nov-15 03:30N 28°16' W 014°57'611.4
2017-Nov-15 03:00N 28°22' W 014°55'611.3
2017-Nov-15 02:30N 28°27' W 014°53'611.3
2017-Nov-15 02:00N 28°32' W 014°51'611.4
2017-Nov-15 01:31N 28°38' W 014°49'  
2017-Nov-12 20:47N 35°57' W 005°35'412.7
2017-Nov-12 20:28N 35°58' W 005°30'611.6
2017-Nov-12 20:00N 35°60' W 005°24'510.5
2017-Nov-12 19:31N 36°01' W 005°17'21612.0
2017-Nov-12 01:35N 37°13' W 001°04'112.8
2017-Nov-12 01:29N 37°14' W 001°03'712.6
2017-Nov-12 00:58N 37°18' W 000°56'612.9
2017-Nov-12 00:30N 37°22' W 000°51'612.9
2017-Nov-12 00:00N 37°26' W 000°45'813.1
2017-Nov-11 23:26N 37°31' W 000°38'612.8
2017-Nov-11 23:00N 37°35' W 000°33'612.9
2017-Nov-11 22:30N 37°40' W 000°28'  

Dump ship's entire track history